createdAt,value
2022-11-16T00:01:52.396Z,5.47
2022-11-16T00:04:24.246Z,5.30
2022-11-16T00:06:56.171Z,6.20
2022-11-16T00:09:29.811Z,5.32
2022-11-16T00:12:03.824Z,5.65
2022-11-16T00:14:36.475Z,6.10
2022-11-16T00:17:08.265Z,5.85
2022-11-16T00:19:40.137Z,6.10
2022-11-16T00:22:11.988Z,5.80
2022-11-16T00:24:45.193Z,6.35
2022-11-16T00:27:16.987Z,5.00
2022-11-16T00:29:48.790Z,5.25
2022-11-16T00:32:20.575Z,5.45
2022-11-16T00:34:52.360Z,5.80
2022-11-16T00:37:24.172Z,5.47
2022-11-16T00:39:57.293Z,5.60
2022-11-16T00:42:29.043Z,5.75
2022-11-16T00:45:00.834Z,5.40
2022-11-16T00:47:32.590Z,5.68
2022-11-16T00:50:05.404Z,5.40
2022-11-16T00:52:37.196Z,5.82
2022-11-16T00:55:10.403Z,5.95
2022-11-16T00:57:42.232Z,5.90
2022-11-16T01:00:15.039Z,6.05
2022-11-16T01:02:46.855Z,5.80
2022-11-16T01:05:18.836Z,5.93
2022-11-16T01:07:51.275Z,6.38
2022-11-16T01:10:26.775Z,6.27
2022-11-16T01:12:59.034Z,6.35
2022-11-16T01:15:30.823Z,6.68
2022-11-16T01:18:02.601Z,6.50
2022-11-16T01:20:34.381Z,5.85
2022-11-16T01:23:06.209Z,5.50
2022-11-16T01:25:39.340Z,5.13
2022-11-16T01:28:11.133Z,5.00
2022-11-16T01:30:48.146Z,4.85
2022-11-16T01:33:19.960Z,5.38
2022-11-16T01:35:51.802Z,4.90
2022-11-16T01:38:27.223Z,5.00
2022-11-16T01:41:02.774Z,5.78
2022-11-16T01:43:50.926Z,5.30
2022-11-16T01:46:22.946Z,6.00
2022-11-16T01:49:00.527Z,5.55
2022-11-16T01:51:33.491Z,5.82
2022-11-16T01:54:09.817Z,5.82
2022-11-16T01:56:45.212Z,5.60
2022-11-16T01:59:17.836Z,6.15
2022-11-16T02:01:49.634Z,5.72
2022-11-16T02:04:21.489Z,6.15
2022-11-16T02:07:01.719Z,6.05
2022-11-16T02:09:54.523Z,6.53
2022-11-16T02:12:45.308Z,6.68
2022-11-16T02:15:24.210Z,6.65
2022-11-16T02:18:07.381Z,7.38
2022-11-16T02:21:16.919Z,7.28
2022-11-16T02:24:07.421Z,7.13
2022-11-16T02:27:12.064Z,7.05
2022-11-16T02:29:50.036Z,7.75
2022-11-16T02:32:28.605Z,7.30
2022-11-16T02:35:06.154Z,7.45
2022-11-16T02:37:43.786Z,7.50
2022-11-16T02:40:17.159Z,6.75
2022-11-16T02:45:27.141Z,6.70
2022-11-16T02:48:04.588Z,6.70
2022-11-16T02:50:38.303Z,6.95
2022-11-16T02:53:10.256Z,6.35
2022-11-16T02:55:42.196Z,6.70
2022-11-16T02:58:17.942Z,6.75
2022-11-16T03:00:57.206Z,7.05
2022-11-16T03:03:35.118Z,7.00
2022-11-16T03:06:13.736Z,6.88
2022-11-16T03:08:52.203Z,6.90
2022-11-16T03:11:42.440Z,7.13
2022-11-16T03:14:17.526Z,7.40
2022-11-16T03:16:53.585Z,7.03
2022-11-16T03:19:32.728Z,7.00
2022-11-16T03:22:11.291Z,6.60
2022-11-16T03:24:43.639Z,6.90
2022-11-16T03:27:24.470Z,6.70
2022-11-16T03:30:04.531Z,6.25
2022-11-16T03:32:44.862Z,6.55
2022-11-16T03:35:22.186Z,6.18
2022-11-16T03:37:57.588Z,6.00
2022-11-16T03:40:31.992Z,6.95
2022-11-16T03:43:06.526Z,6.80
2022-11-16T03:45:38.654Z,7.00
2022-11-16T03:48:11.907Z,6.43
2022-11-16T03:50:44.066Z,5.88
2022-11-16T03:53:15.873Z,7.22
2022-11-16T03:55:49.935Z,5.95
2022-11-16T03:58:22.005Z,5.35
2022-11-16T04:00:54.268Z,5.45
2022-11-16T04:03:27.396Z,6.20
2022-11-16T04:09:28.400Z,3.88
2022-11-16T04:12:18.685Z,3.97
2022-11-16T04:15:16.745Z,3.88
2022-11-16T04:18:06.992Z,3.50
2022-11-16T04:20:58.705Z,4.13
2022-11-16T04:23:49.594Z,3.95
2022-11-16T04:26:41.400Z,3.70
2022-11-16T04:29:13.913Z,3.20
2022-11-16T04:32:04.589Z,2.70
2022-11-16T04:34:55.205Z,3.35
2022-11-16T04:37:46.878Z,2.97
2022-11-16T04:40:20.297Z,3.20
2022-11-16T04:45:43.646Z,3.10
2022-11-16T04:48:16.969Z,3.35
2022-11-16T04:53:23.974Z,3.15
2022-11-16T04:56:00.633Z,3.45
2022-11-16T04:58:33.445Z,3.92
2022-11-16T05:01:05.553Z,3.88
2022-11-16T05:03:37.399Z,3.85
2022-11-16T05:06:09.194Z,3.35
2022-11-16T05:08:42.312Z,3.40
2022-11-16T05:11:14.101Z,3.15
2022-11-16T05:13:45.879Z,3.40
2022-11-16T05:16:17.705Z,2.92
2022-11-16T05:19:09.442Z,2.90
2022-11-16T05:21:41.233Z,2.50
2022-11-16T05:24:33.144Z,2.92
2022-11-16T05:27:07.387Z,3.13
2022-11-16T05:29:39.771Z,2.53
2022-11-16T05:32:12.835Z,2.78
2022-11-16T05:34:44.743Z,2.42
2022-11-16T05:37:17.436Z,2.58
2022-11-16T05:39:50.688Z,2.47
2022-11-16T05:42:22.489Z,2.60
2022-11-16T05:44:54.314Z,3.40
2022-11-16T05:47:26.166Z,3.53
2022-11-16T05:49:57.956Z,3.55
2022-11-16T05:52:29.743Z,3.85
2022-11-16T05:55:03.015Z,4.05
2022-11-16T05:57:34.786Z,3.90
2022-11-16T06:00:07.924Z,3.95
2022-11-16T06:02:39.817Z,3.80
2022-11-16T06:05:11.703Z,3.80
2022-11-16T06:07:43.585Z,3.60
2022-11-16T06:10:16.869Z,4.15
2022-11-16T06:12:48.642Z,3.50
2022-11-16T06:15:20.409Z,3.63
2022-11-16T06:17:52.171Z,3.10
2022-11-16T06:20:24.007Z,3.10
2022-11-16T06:22:55.792Z,2.95
2022-11-16T06:25:30.802Z,3.00
2022-11-16T06:28:07.477Z,3.08
2022-11-16T06:30:40.620Z,2.70
2022-11-16T06:33:12.400Z,2.85
2022-11-16T06:35:44.674Z,2.78
2022-11-16T06:38:20.183Z,3.13
2022-11-16T06:40:55.048Z,3.10
2022-11-16T06:43:27.082Z,3.08
2022-11-16T06:45:59.024Z,3.08
2022-11-16T06:48:31.197Z,3.40
2022-11-16T06:51:03.309Z,3.38
2022-11-16T06:53:35.276Z,3.65
2022-11-16T06:56:12.219Z,2.90
2022-11-16T06:58:44.011Z,3.17
2022-11-16T07:01:15.869Z,2.70
2022-11-16T07:03:47.662Z,2.60
2022-11-16T07:06:19.540Z,2.80
2022-11-16T07:08:51.341Z,2.80
2022-11-16T07:11:24.495Z,2.47
2022-11-16T07:13:56.344Z,2.50
2022-11-16T07:16:28.842Z,2.10
2022-11-16T07:19:00.776Z,2.07
2022-11-16T07:21:32.771Z,2.30
2022-11-16T07:24:04.852Z,2.33
2022-11-16T07:26:37.981Z,2.50
2022-11-16T07:29:09.783Z,2.70
2022-11-16T07:31:41.680Z,2.00
2022-11-16T07:34:13.518Z,2.20
2022-11-16T07:36:45.299Z,2.30
2022-11-16T07:39:17.157Z,2.63
2022-11-16T07:41:53.065Z,2.30
2022-11-16T07:44:24.907Z,2.55
2022-11-16T07:46:56.674Z,2.65
2022-11-16T07:49:28.513Z,2.88
2022-11-16T07:52:00.323Z,2.80
2022-11-16T07:54:32.320Z,3.08
2022-11-16T07:57:05.546Z,3.35
2022-11-16T07:59:37.381Z,3.20
2022-11-16T08:02:09.899Z,3.47
2022-11-16T08:04:41.786Z,3.22
2022-11-16T08:07:14.422Z,2.88
2022-11-16T08:09:46.515Z,3.25
2022-11-16T08:12:19.805Z,3.05
2022-11-16T08:14:51.790Z,2.97
2022-11-16T08:17:23.619Z,3.03
2022-11-16T08:19:55.453Z,3.70
2022-11-16T08:22:27.275Z,2.75
2022-11-16T08:24:59.096Z,2.78
2022-11-16T08:27:33.270Z,2.55
2022-11-16T08:30:09.841Z,2.60
2022-11-16T08:32:42.430Z,3.17
2022-11-16T08:35:14.367Z,2.60
2022-11-16T08:37:46.580Z,3.00
2022-11-16T08:40:18.404Z,2.50
2022-11-16T08:42:56.956Z,2.35
2022-11-16T08:45:28.950Z,1.80
2022-11-16T08:48:03.923Z,2.03
2022-11-16T08:50:55.375Z,2.15
2022-11-16T08:53:28.106Z,2.50
2022-11-16T08:56:03.568Z,2.50
2022-11-16T08:58:36.753Z,2.20
2022-11-16T09:01:10.091Z,2.72
2022-11-16T09:03:42.250Z,2.30
2022-11-16T09:06:14.515Z,2.00
2022-11-16T09:08:46.645Z,2.20
2022-11-16T09:11:21.969Z,1.90
2022-11-16T09:13:55.761Z,2.30
2022-11-16T09:16:27.977Z,2.15
2022-11-16T09:19:00.884Z,2.05
2022-11-16T09:21:32.712Z,2.30
2022-11-16T09:24:04.971Z,2.08
2022-11-16T09:26:36.771Z,2.10
2022-11-16T09:29:14.679Z,2.33
2022-11-16T09:31:48.964Z,2.15
2022-11-16T09:34:20.908Z,2.60
2022-11-16T09:36:52.737Z,2.20
2022-11-16T09:39:31.044Z,2.08
2022-11-16T09:42:18.793Z,1.77
2022-11-16T09:45:00.347Z,1.70
2022-11-16T09:47:40.886Z,1.63
2022-11-16T09:50:26.676Z,1.60
2022-11-16T09:53:06.154Z,1.67
2022-11-16T09:55:46.792Z,1.75
2022-11-16T09:58:23.891Z,1.92
2022-11-16T10:01:03.456Z,2.15
2022-11-16T10:03:42.759Z,1.80
2022-11-16T10:06:21.630Z,1.88
2022-11-16T10:08:56.767Z,1.50
2022-11-16T10:11:48.800Z,1.60
2022-11-16T10:14:45.159Z,1.70
2022-11-16T10:17:25.341Z,1.90
2022-11-16T10:20:18.358Z,1.38
2022-11-16T10:22:59.501Z,1.40
2022-11-16T10:25:43.264Z,1.75
2022-11-16T10:28:45.618Z,1.60
2022-11-16T10:31:21.202Z,1.80
2022-11-16T10:33:58.924Z,1.30
2022-11-16T10:36:33.835Z,1.90
2022-11-16T10:39:12.966Z,1.80
2022-11-16T10:41:48.786Z,1.33
2022-11-16T10:44:30.094Z,1.35
2022-11-16T10:47:05.953Z,1.40
2022-11-16T10:49:47.923Z,1.50
2022-11-16T10:52:21.751Z,1.40
2022-11-16T10:54:55.001Z,1.73
2022-11-16T10:57:58.756Z,1.30
2022-11-16T11:00:39.678Z,1.10
2022-11-16T11:03:12.016Z,1.25
2022-11-16T11:05:50.016Z,0.90
2022-11-16T11:08:27.601Z,0.80
2022-11-16T11:11:03.224Z,1.05
2022-11-16T11:13:36.948Z,0.80
2022-11-16T11:16:17.220Z,1.17
2022-11-16T11:18:54.286Z,0.90
2022-11-16T11:21:27.432Z,1.20
2022-11-16T11:24:29.428Z,1.55
2022-11-16T11:26:57.107Z,0.60
2022-11-16T11:29:33.161Z,1.00
2022-11-16T11:32:07.607Z,0.82
2022-11-16T11:34:43.582Z,0.82
2022-11-16T11:37:17.645Z,0.88
2022-11-16T11:40:17.406Z,0.80
2022-11-16T11:42:58.028Z,0.93
2022-11-16T11:45:42.152Z,0.60
2022-11-16T11:48:27.905Z,0.70
2022-11-16T11:51:08.854Z,0.90
2022-11-16T11:53:51.938Z,0.57
2022-11-16T11:56:24.842Z,0.80
2022-11-16T11:58:56.866Z,0.77
2022-11-16T12:01:57.407Z,0.77
2022-11-16T12:05:02.626Z,0.95
2022-11-16T12:07:47.893Z,0.70
2022-11-16T12:10:27.567Z,0.65
2022-11-16T12:13:10.737Z,0.70
2022-11-16T12:15:58.929Z,0.65
2022-11-16T12:18:50.840Z,0.80
2022-11-16T12:21:31.823Z,0.85
2022-11-16T12:24:17.947Z,0.80
2022-11-16T12:27:02.162Z,1.00
2022-11-16T12:29:45.078Z,0.90
2022-11-16T12:32:50.140Z,0.85
2022-11-16T12:35:47.812Z,0.70
2022-11-16T12:38:42.158Z,0.70
2022-11-16T12:41:39.830Z,1.08
2022-11-16T12:44:14.122Z,0.70
2022-11-16T12:46:59.083Z,0.68
2022-11-16T12:49:46.925Z,0.63
2022-11-16T12:52:41.310Z,0.88
2022-11-16T12:55:27.134Z,0.80
2022-11-16T12:58:16.721Z,1.10
2022-11-16T13:01:02.735Z,0.90
2022-11-16T13:03:42.788Z,1.02
2022-11-16T13:06:19.704Z,0.90
2022-11-16T13:09:01.680Z,0.80
2022-11-16T13:11:37.985Z,1.00
2022-11-16T13:14:14.032Z,0.80
2022-11-16T13:16:47.331Z,0.90
2022-11-16T13:21:56.055Z,0.90
2022-11-16T13:24:42.265Z,0.80
2022-11-16T13:27:25.043Z,0.80
2022-11-16T13:30:03.650Z,0.90
2022-11-16T13:32:49.363Z,0.82
2022-11-16T13:35:21.458Z,0.73
2022-11-16T13:37:53.534Z,0.70
2022-11-16T13:40:29.310Z,0.70
2022-11-16T13:43:04.875Z,0.80
2022-11-16T13:45:41.088Z,0.60
2022-11-16T13:48:19.218Z,1.02
2022-11-16T13:50:53.865Z,0.60
2022-11-16T13:56:28.646Z,0.70
2022-11-16T13:59:00.855Z,0.60
2022-11-16T14:01:58.662Z,0.70
2022-11-16T14:04:42.805Z,0.70
2022-11-16T14:07:37.197Z,1.08
2022-11-16T14:10:10.454Z,0.75
2022-11-16T14:12:54.010Z,0.70
2022-11-16T14:15:34.484Z,0.95
2022-11-16T14:18:31.777Z,0.73
2022-11-16T14:21:21.817Z,0.70
2022-11-16T14:24:11.293Z,0.60
2022-11-16T14:26:52.536Z,0.70
2022-11-16T14:29:44.127Z,0.80
2022-11-16T14:32:20.823Z,0.90
2022-11-16T14:34:55.278Z,0.80
2022-11-16T14:37:33.591Z,0.77
2022-11-16T14:40:09.046Z,0.70
2022-11-16T14:43:09.908Z,0.90
2022-11-16T14:45:41.098Z,0.70
2022-11-16T14:50:58.724Z,0.55
2022-11-16T14:53:32.088Z,0.68
2022-11-16T14:56:09.664Z,0.70
2022-11-16T14:58:50.889Z,0.50
2022-11-16T15:01:27.241Z,0.52
2022-11-16T15:04:04.373Z,0.90
2022-11-16T15:06:41.559Z,0.73
2022-11-16T15:09:18.207Z,0.80
2022-11-16T15:12:09.293Z,0.70
2022-11-16T15:14:46.400Z,0.90
2022-11-16T15:17:22.246Z,0.70
2022-11-16T15:19:55.866Z,0.90
2022-11-16T15:22:30.078Z,0.70
2022-11-16T15:25:02.135Z,0.77
2022-11-16T15:27:36.537Z,0.90
2022-11-16T15:30:16.968Z,0.80
2022-11-16T15:32:51.917Z,0.70
2022-11-16T15:35:28.617Z,0.65
2022-11-16T15:38:01.919Z,0.80
2022-11-16T15:43:07.083Z,1.13
2022-11-16T15:45:42.036Z,2.40
2022-11-16T15:48:19.880Z,3.00
2022-11-16T15:51:00.171Z,1.48
2022-11-16T15:53:38.637Z,2.30
2022-11-16T15:56:15.112Z,1.35
2022-11-16T15:58:47.534Z,1.50
2022-11-16T16:01:26.070Z,1.13
2022-11-16T16:04:03.971Z,1.33
2022-11-16T16:06:47.428Z,1.50
2022-11-16T16:09:25.592Z,2.80
2022-11-16T16:12:17.064Z,2.50
2022-11-16T16:14:49.998Z,3.90
2022-11-16T16:17:23.841Z,2.70
2022-11-16T16:19:58.609Z,2.40
2022-11-16T16:22:32.668Z,2.40
2022-11-16T16:25:06.570Z,1.88
2022-11-16T16:27:40.015Z,4.18
2022-11-16T16:30:14.715Z,6.90
2022-11-16T16:32:51.701Z,6.30
2022-11-16T16:35:26.307Z,7.13
2022-11-16T16:38:00.713Z,2.33
2022-11-16T16:40:32.580Z,2.10
2022-11-16T16:43:04.421Z,2.00
2022-11-16T16:45:38.768Z,2.25
2022-11-16T16:48:13.900Z,1.80
2022-11-16T16:50:47.088Z,2.10
2022-11-16T16:53:18.970Z,1.75
2022-11-16T16:55:50.983Z,1.92
2022-11-16T16:58:25.541Z,1.83
2022-11-16T17:01:01.252Z,1.90
2022-11-16T17:03:34.411Z,2.22
2022-11-16T17:06:07.871Z,4.43
2022-11-16T17:08:39.782Z,11.50
2022-11-16T17:11:14.830Z,15.40
2022-11-16T17:13:47.038Z,15.27
2022-11-16T17:16:18.974Z,7.40
2022-11-16T17:18:54.940Z,5.10
2022-11-16T17:21:28.123Z,3.60
2022-11-16T17:23:59.938Z,2.88
2022-11-16T17:26:31.803Z,2.97
2022-11-16T17:29:03.795Z,2.90
2022-11-16T17:31:36.292Z,4.15
2022-11-16T17:34:13.215Z,3.50
2022-11-16T17:36:47.150Z,4.03
2022-11-16T17:39:19.303Z,5.20
2022-11-16T17:41:51.581Z,3.88
2022-11-16T17:44:23.444Z,3.80
2022-11-16T17:46:55.263Z,4.28
2022-11-16T17:49:27.163Z,3.63
2022-11-16T17:52:01.648Z,2.80
2022-11-16T17:54:33.549Z,3.88
2022-11-16T17:57:05.452Z,2.95
2022-11-16T17:59:37.255Z,7.97
2022-11-16T18:02:10.634Z,4.05
2022-11-16T18:07:24.122Z,4.70
2022-11-16T18:12:27.733Z,4.22
2022-11-16T18:15:21.710Z,4.53
2022-11-16T18:17:51.377Z,4.72
2022-11-16T18:20:24.436Z,6.00
2022-11-16T18:22:57.761Z,8.40
2022-11-16T18:28:01.485Z,6.07
2022-11-16T18:30:33.339Z,5.70
2022-11-16T18:33:05.158Z,5.60
2022-11-16T18:35:37.008Z,6.53
2022-11-16T18:38:13.318Z,6.03
2022-11-16T18:40:45.171Z,5.13
2022-11-16T18:43:16.996Z,4.00
2022-11-16T18:45:48.819Z,4.30
2022-11-16T18:48:20.628Z,5.38
2022-11-16T18:50:52.455Z,6.75
2022-11-16T18:53:25.805Z,6.95
2022-11-16T19:01:26.338Z,3.22
2022-11-16T19:03:58.293Z,2.90
2022-11-16T19:06:32.079Z,3.08
2022-11-16T19:09:09.477Z,3.08
2022-11-16T19:11:41.340Z,2.95
2022-11-16T19:14:13.376Z,2.90
2022-11-16T19:16:54.093Z,2.85
2022-11-16T19:19:29.870Z,3.30
2022-11-16T19:22:01.709Z,3.20
2022-11-16T19:24:35.040Z,2.83
2022-11-16T19:29:38.594Z,3.00
2022-11-16T19:32:10.410Z,2.90
2022-11-16T19:34:42.197Z,3.10
2022-11-16T19:37:15.087Z,3.10
2022-11-16T19:39:48.280Z,4.22
2022-11-16T19:42:20.130Z,2.90
2022-11-16T19:44:52.016Z,2.75
2022-11-16T19:47:26.196Z,2.90
2022-11-16T19:49:58.212Z,2.78
2022-11-16T19:52:30.196Z,2.35
2022-11-16T19:55:03.613Z,2.60
2022-11-16T20:00:08.571Z,2.45
2022-11-16T20:02:40.526Z,2.95
2022-11-16T20:05:12.319Z,2.70
2022-11-16T20:07:44.693Z,2.83
2022-11-16T20:10:33.261Z,2.80
2022-11-16T20:13:05.522Z,2.83
2022-11-16T20:15:40.082Z,2.70
2022-11-16T20:18:11.994Z,2.53
2022-11-16T20:20:44.365Z,2.75
2022-11-16T20:23:19.755Z,2.50
2022-11-16T20:25:52.861Z,3.35
2022-11-16T20:28:24.701Z,3.30
2022-11-16T20:30:56.822Z,2.70
2022-11-16T20:33:28.603Z,2.50
2022-11-16T20:36:01.784Z,2.60
2022-11-16T20:38:34.131Z,2.80
2022-11-16T20:41:12.483Z,3.10
2022-11-16T20:43:45.839Z,2.60
2022-11-16T20:48:50.930Z,2.83
2022-11-16T20:51:23.761Z,2.35
2022-11-16T20:53:55.760Z,2.42
2022-11-16T20:56:28.963Z,2.78
2022-11-16T20:59:00.930Z,2.70
2022-11-16T21:01:32.802Z,3.08
2022-11-16T21:04:06.112Z,3.60
2022-11-16T21:06:37.911Z,3.45
2022-11-16T21:09:11.246Z,3.30
2022-11-16T21:14:34.775Z,3.30
2022-11-16T21:17:08.884Z,3.85
2022-11-16T21:19:49.883Z,3.78
2022-11-16T21:22:32.828Z,3.45
2022-11-16T21:27:38.235Z,3.45
2022-11-16T21:30:11.335Z,3.60
2022-11-16T21:32:43.248Z,5.05
2022-11-16T21:35:18.239Z,5.82
2022-11-16T21:37:57.819Z,7.13
2022-11-16T21:40:37.149Z,5.60
2022-11-16T21:43:10.328Z,5.38
2022-11-16T21:45:46.239Z,5.57
2022-11-16T21:48:18.293Z,4.38
2022-11-16T21:50:59.724Z,4.03
2022-11-16T21:53:34.875Z,4.22
2022-11-16T21:56:10.659Z,3.78
2022-11-16T21:58:44.303Z,3.70
2022-11-16T22:01:16.544Z,3.55
2022-11-16T22:04:07.637Z,3.30
2022-11-16T22:07:02.168Z,3.58
2022-11-16T22:09:33.995Z,3.67
2022-11-16T22:12:12.027Z,3.65
2022-11-16T22:14:45.173Z,4.10
2022-11-16T22:17:16.992Z,3.97
2022-11-16T22:19:49.081Z,3.60
2022-11-16T22:22:21.428Z,3.47
2022-11-16T22:24:56.430Z,3.42
2022-11-16T22:27:28.341Z,3.63
2022-11-16T22:30:07.900Z,3.55
2022-11-16T22:32:44.819Z,4.22
2022-11-16T22:35:16.690Z,3.92
2022-11-16T22:37:48.502Z,3.70
2022-11-16T22:40:21.459Z,3.40
2022-11-16T22:42:56.711Z,3.67
2022-11-16T22:45:29.959Z,3.40
2022-11-16T22:48:01.786Z,3.38
2022-11-16T22:50:33.685Z,3.50
2022-11-16T22:53:08.816Z,3.80
2022-11-16T22:55:40.932Z,3.70
2022-11-16T22:58:12.719Z,4.15
2022-11-16T23:00:46.210Z,4.35
2022-11-16T23:03:18.080Z,4.35
2022-11-16T23:05:50.129Z,4.30
2022-11-16T23:08:24.801Z,3.85
2022-11-16T23:11:18.950Z,4.40
2022-11-16T23:14:10.746Z,4.78
2022-11-16T23:16:44.504Z,4.47
2022-11-16T23:19:37.138Z,4.93
2022-11-16T23:22:31.362Z,3.95
2022-11-16T23:25:22.520Z,4.10
2022-11-16T23:27:58.994Z,4.30
2022-11-16T23:30:31.389Z,4.07
2022-11-16T23:33:04.893Z,3.80
2022-11-16T23:38:08.623Z,3.70
2022-11-16T23:40:40.745Z,4.30
2022-11-16T23:43:31.341Z,3.60
2022-11-16T23:46:03.174Z,4.22
2022-11-16T23:48:36.398Z,3.70
2022-11-16T23:51:08.224Z,4.30
2022-11-16T23:53:39.999Z,3.80
2022-11-16T23:56:11.870Z,4.30
2022-11-16T23:58:43.750Z,3.50
